Time;durP1;ratioP1;P1;durP2;ratioP2;P2;SDS_P1;SDS_P2;PMS_P1;PMS_P2;Temp;Humidity;BMP_temperature;BMP_pressure;BME280_temperature;BME280_humidity;BME280_pressure;Samples;Min_cycle;Max_cycle;Signal;HPM_P1;HPM_P2
2022/08/08 00:01:41;;;;;;;2.83;1.20;;;13.30;99.90;;;;;;5011986;28;20178;-87
2022/08/08 00:04:26;;;;;;;2.40;0.97;;;13.30;99.90;;;;;;4976376;28;20845;-86
2022/08/08 00:07:12;;;;;;;2.73;1.47;;;13.30;99.90;;;;;;5012483;28;20512;-86
2022/08/08 00:10:01;;;;;;;2.50;1.53;;;13.20;99.90;;;;;;5011240;28;20428;-86
2022/08/08 00:12:32;;;;;;;1.93;0.83;;;13.20;99.90;;;;;;5016050;28;20448;-85
2022/08/08 00:15:20;;;;;;;2.37;1.27;;;13.20;99.90;;;;;;5015652;28;20452;-86
2022/08/08 00:18:07;;;;;;;1.80;0.83;;;13.20;99.90;;;;;;5015081;28;20401;-81
2022/08/08 00:20:50;;;;;;;3.20;1.87;;;13.10;99.90;;;;;;5015298;28;20935;-81
2022/08/08 00:23:34;;;;;;;1.30;1.00;;;13.10;99.90;;;;;;4997973;28;20509;-87
2022/08/08 00:26:03;;;;;;;2.67;1.10;;;13.00;99.90;;;;;;4997635;28;20431;-84
2022/08/08 00:28:35;;;;;;;2.03;1.07;;;13.00;99.90;;;;;;4998032;28;20460;-85
2022/08/08 00:31:07;;;;;;;4.33;1.60;;;13.00;99.90;;;;;;4997825;28;20456;-85
2022/08/08 00:33:42;;;;;;;2.37;1.33;;;12.90;99.90;;;;;;5015631;28;20420;-85
2022/08/08 00:36:29;;;;;;;1.60;0.77;;;12.90;99.90;;;;;;5015590;28;20419;-83
2022/08/08 00:39:17;;;;;;;2.17;1.17;;;12.90;99.90;;;;;;5015615;28;20456;-85
2022/08/08 00:41:48;;;;;;;3.37;2.57;;;12.90;99.90;;;;;;5015494;28;20508;-84
2022/08/08 00:44:26;;;;;;;3.10;1.40;;;12.90;99.90;;;;;;5015276;28;20472;-85
2022/08/08 00:47:44;;;;;;;11.83;2.53;;;12.90;99.90;;;;;;5014871;28;20428;-84
2022/08/08 00:50:13;;;;;;;2.73;1.10;;;13.20;99.90;;;;;;4976271;28;20486;-84
2022/08/08 00:52:54;;;;;;;3.33;1.50;;;13.40;99.90;;;;;;4995634;28;20456;-84
2022/08/08 00:55:46;;;;;;;3.23;2.10;;;13.30;99.90;;;;;;4995094;28;20414;-85
2022/08/08 00:58:47;;;;;;;5.47;1.83;;;13.20;99.90;;;;;;4975181;28;20809;-83
2022/08/08 01:01:37;;;;;;;1.93;0.90;;;13.00;99.90;;;;;;4995064;28;20415;-82
2022/08/08 01:04:39;;;;;;;3.20;1.73;;;13.00;99.90;;;;;;5010363;28;20481;-84
2022/08/08 01:07:37;;;;;;;3.83;1.80;;;12.90;99.90;;;;;;5010270;28;20437;-84
2022/08/08 01:10:36;;;;;;;3.13;1.53;;;12.90;99.90;;;;;;4994111;28;20419;-84
2022/08/08 01:13:34;;;;;;;2.53;1.10;;;12.90;99.90;;;;;;4995146;28;20508;-84
2022/08/08 01:16:24;;;;;;;4.43;2.37;;;12.80;99.90;;;;;;4994747;28;20428;-85
2022/08/08 01:19:14;;;;;;;3.57;2.37;;;12.80;99.90;;;;;;5010171;28;20427;-84
2022/08/08 01:22:11;;;;;;;2.40;1.43;;;12.80;99.90;;;;;;4994340;28;20744;-84
2022/08/08 01:24:48;;;;;;;4.23;2.13;;;12.70;99.90;;;;;;4994753;28;20473;-84
2022/08/08 01:27:42;;;;;;;2.97;2.00;;;12.70;99.90;;;;;;4994900;28;20487;-83
2022/08/08 01:30:26;;;;;;;3.47;1.90;;;12.70;99.90;;;;;;4994520;28;20781;-84
2022/08/08 01:33:28;;;;;;;3.70;1.90;;;12.60;99.90;;;;;;4991457;28;20447;-84
2022/08/08 01:36:28;;;;;;;2.67;1.63;;;12.60;99.90;;;;;;4994756;28;20426;-83
2022/08/08 01:39:06;;;;;;;3.27;2.63;;;12.60;99.90;;;;;;4994751;28;20407;-84
2022/08/08 01:41:41;;;;;;;3.83;1.60;;;12.60;99.90;;;;;;4994646;28;20988;-83
2022/08/08 01:44:40;;;;;;;2.90;1.57;;;12.50;99.90;;;;;;4994647;28;20509;-83
2022/08/08 01:47:20;;;;;;;2.10;1.33;;;12.50;99.90;;;;;;4993430;28;20760;-84
2022/08/08 01:49:59;;;;;;;3.10;1.47;;;12.50;99.90;;;;;;4999267;28;20455;-83
2022/08/08 01:52:58;;;;;;;2.80;1.30;;;12.50;99.90;;;;;;4996444;28;20507;-83
2022/08/08 01:55:37;;;;;;;4.00;1.73;;;12.50;99.90;;;;;;5013989;28;20472;-84
2022/08/08 01:58:26;;;;;;;3.07;1.40;;;12.40;99.90;;;;;;5013911;28;20415;-83
2022/08/08 02:01:04;;;;;;;2.10;0.83;;;12.40;99.90;;;;;;5013626;28;20780;-83
2022/08/08 02:03:59;;;;;;;6.90;1.80;;;12.40;99.90;;;;;;4996165;28;20529;-84
2022/08/08 02:06:58;;;;;;;2.90;1.37;;;12.40;99.90;;;;;;5013930;28;20411;-85
2022/08/08 02:09:45;;;;;;;2.83;2.00;;;12.30;99.90;;;;;;5002621;28;20430;-84
2022/08/08 02:12:22;;;;;;;2.07;0.80;;;12.30;99.90;;;;;;5013858;28;20480;-84
2022/08/08 02:15:09;;;;;;;1.83;1.00;;;12.20;99.90;;;;;;5013357;28;20404;-85
2022/08/08 02:17:52;;;;;;;3.20;1.73;;;12.20;99.90;;;;;;5013796;28;20771;-85
2022/08/08 02:20:34;;;;;;;4.13;1.90;;;12.20;99.90;;;;;;5013661;28;20414;-85
2022/08/08 02:23:24;;;;;;;2.87;1.40;;;12.10;99.90;;;;;;5013354;28;20467;-86
2022/08/08 02:26:10;;;;;;;2.93;1.53;;;12.10;99.90;;;;;;5013427;28;20424;-85
2022/08/08 02:29:04;;;;;;;2.83;1.90;;;12.20;99.90;;;;;;5013726;28;20430;-86
2022/08/08 02:31:51;;;;;;;2.60;1.23;;;12.10;99.90;;;;;;5013218;28;20408;-85
2022/08/08 02:35:00;;;;;;;5.00;1.80;;;12.10;99.90;;;;;;5011917;28;20440;-85
2022/08/08 02:38:14;;;;;;;2.97;2.10;;;12.00;99.90;;;;;;4995617;28;20434;-85
2022/08/08 02:40:58;;;;;;;1.90;1.37;;;12.00;99.90;;;;;;5013419;28;20443;-85
2022/08/08 02:43:35;;;;;;;3.40;1.70;;;12.00;99.90;;;;;;5013277;28;20963;-83
2022/08/08 02:46:28;;;;;;;5.00;1.40;;;12.00;99.90;;;;;;5012853;28;20411;-86
2022/08/08 02:49:34;;;;;;;2.27;1.43;;;11.90;99.90;;;;;;5013331;28;20482;-85
2022/08/08 02:52:21;;;;;;;2.40;1.23;;;11.90;99.90;;;;;;4995598;28;20488;-85
2022/08/08 02:55:12;;;;;;;2.50;1.50;;;11.90;99.90;;;;;;4995145;28;20785;-86
2022/08/08 02:58:05;;;;;;;2.70;1.80;;;11.90;99.90;;;;;;4995055;28;20457;-85
2022/08/08 03:00:40;;;;;;;3.50;1.30;;;11.80;99.90;;;;;;4995110;28;20435;-85
2022/08/08 03:03:31;;;;;;;3.33;1.60;;;11.80;99.90;;;;;;5013091;28;20479;-86
2022/08/08 03:06:21;;;;;;;2.27;1.07;;;11.80;99.90;;;;;;5013101;28;20837;-85
2022/08/08 03:09:18;;;;;;;3.57;1.23;;;11.80;99.90;;;;;;5013079;28;20777;-86
2022/08/08 03:12:01;;;;;;;1.77;0.80;;;11.80;99.90;;;;;;5012987;28;20425;-86
2022/08/08 03:14:54;;;;;;;2.43;1.67;;;11.70;99.90;;;;;;5012616;28;20418;-85
2022/08/08 03:17:30;;;;;;;4.10;1.87;;;11.70;99.90;;;;;;5012878;28;20502;-86
2022/08/08 03:20:05;;;;;;;2.13;1.33;;;11.70;99.90;;;;;;5012962;28;20429;-86
2022/08/08 03:22:31;;;;;;;4.13;1.67;;;11.70;99.90;;;;;;5012615;28;20467;-86
2022/08/08 03:25:04;;;;;;;5.83;2.23;;;11.70;99.90;;;;;;5012492;28;20517;-86
2022/08/08 03:27:45;;;;;;;3.50;1.50;;;11.70;99.90;;;;;;5013008;28;20954;-86
2022/08/08 03:30:12;;;;;;;2.80;1.53;;;11.70;99.90;;;;;;5012593;28;20451;-86
2022/08/08 03:35:24;;;;;;;2.50;1.73;;;11.80;99.90;;;;;;5012933;28;20496;-86
2022/08/08 03:37:51;;;;;;;3.40;1.60;;;11.90;99.90;;;;;;5012773;28;20478;-87
2022/08/08 03:40:20;;;;;;;3.20;1.60;;;12.00;99.90;;;;;;5012865;28;20424;-86
2022/08/08 03:42:46;;;;;;;2.20;1.70;;;12.10;99.90;;;;;;5012783;28;20559;-87
2022/08/08 03:45:21;;;;;;;2.03;1.03;;;12.20;99.90;;;;;;5014320;28;20425;-87
2022/08/08 03:48:08;;;;;;;3.07;1.50;;;12.20;99.90;;;;;;5016523;28;20411;-85
2022/08/08 03:51:00;;;;;;;2.97;0.80;;;12.30;99.90;;;;;;5015739;28;20522;-87
2022/08/08 03:53:26;;;;;;;3.07;1.60;;;12.30;99.90;;;;;;5012909;28;20418;-87
2022/08/08 03:55:51;;;;;;;1.80;1.23;;;12.40;99.90;;;;;;5016379;28;20927;-87
2022/08/08 03:58:19;;;;;;;12.13;2.00;;;12.40;99.90;;;;;;5016524;28;20175;-87
2022/08/08 04:01:04;;;;;;;2.63;1.40;;;12.50;99.90;;;;;;5014037;28;20233;-84
2022/08/08 04:03:34;;;;;;;3.33;1.20;;;12.50;99.90;;;;;;4996516;28;20475;-86
2022/08/08 04:06:04;;;;;;;3.33;1.30;;;12.60;99.90;;;;;;5013462;28;20423;-85
2022/08/08 04:08:30;;;;;;;2.00;1.30;;;12.60;99.90;;;;;;5016022;28;20442;-87
2022/08/08 04:10:55;;;;;;;2.50;1.23;;;12.70;99.90;;;;;;5016010;28;20453;-85
2022/08/08 04:13:21;;;;;;;3.00;2.63;;;12.70;99.90;;;;;;5015931;28;20177;-86
2022/08/08 04:15:47;;;;;;;3.50;1.53;;;12.70;99.90;;;;;;5015628;28;20218;-86
2022/08/08 04:18:12;;;;;;;4.50;1.67;;;12.70;99.90;;;;;;5015897;28;20518;-85
2022/08/08 04:20:38;;;;;;;3.20;1.70;;;12.70;99.90;;;;;;5015947;28;20293;-87
2022/08/08 04:23:04;;;;;;;2.40;1.93;;;12.80;99.90;;;;;;5015901;28;20663;-86
2022/08/08 04:25:31;;;;;;;3.03;1.53;;;12.80;99.90;;;;;;5015822;28;20169;-85
2022/08/08 04:27:56;;;;;;;4.40;2.63;;;12.80;99.90;;;;;;5016172;28;20405;-87
2022/08/08 04:30:22;;;;;;;3.83;1.57;;;12.90;99.90;;;;;;5014949;28;20907;-82
2022/08/08 04:32:47;;;;;;;5.10;1.97;;;12.90;99.90;;;;;;5014812;28;20632;-83
2022/08/08 04:35:13;;;;;;;2.40;1.73;;;12.90;99.90;;;;;;5015308;28;20177;-83
2022/08/08 04:37:38;;;;;;;2.83;1.57;;;13.00;99.90;;;;;;5015427;28;20611;-83
2022/08/08 04:40:04;;;;;;;3.03;1.43;;;13.00;99.90;;;;;;5015430;28;20654;-82
2022/08/08 04:42:32;;;;;;;2.90;1.10;;;13.10;99.90;;;;;;5015310;28;20174;-84
2022/08/08 04:44:59;;;;;;;2.73;1.50;;;13.20;99.90;;;;;;4997347;28;20229;-83
2022/08/08 04:47:24;;;;;;;2.47;1.90;;;13.20;99.90;;;;;;5015332;28;20413;-82
2022/08/08 04:49:50;;;;;;;2.70;1.57;;;13.30;99.90;;;;;;4997210;28;20477;-83
2022/08/08 04:52:15;;;;;;;2.60;1.37;;;13.30;99.90;;;;;;5015074;28;20226;-83
2022/08/08 04:54:41;;;;;;;2.60;1.60;;;13.40;99.90;;;;;;5015186;28;20188;-81
2022/08/08 04:57:06;;;;;;;2.97;1.80;;;13.50;99.90;;;;;;5014344;28;20173;-85
2022/08/08 04:59:32;;;;;;;2.83;1.40;;;13.60;99.90;;;;;;5014805;28;20216;-86
2022/08/08 05:01:57;;;;;;;2.30;1.23;;;13.60;99.90;;;;;;4997464;28;20176;-83
2022/08/08 05:04:23;;;;;;;2.80;1.43;;;13.70;99.90;;;;;;5015029;28;20215;-84
2022/08/08 05:06:48;;;;;;;2.50;1.37;;;13.80;99.90;;;;;;5015005;28;20309;-83
2022/08/08 05:09:14;;;;;;;4.00;1.30;;;13.80;99.90;;;;;;5015068;28;20197;-84
2022/08/08 05:11:40;;;;;;;3.00;1.37;;;13.90;99.90;;;;;;5014656;28;20262;-83
2022/08/08 05:14:07;;;;;;;2.40;1.27;;;13.90;99.90;;;;;;5014043;28;20665;-84
2022/08/08 05:16:33;;;;;;;2.50;1.30;;;13.90;99.90;;;;;;5014396;28;20407;-84
2022/08/08 05:18:59;;;;;;;2.00;1.30;;;14.00;99.90;;;;;;4996713;28;20851;-84
2022/08/08 05:21:24;;;;;;;3.77;1.10;;;14.00;99.90;;;;;;5014545;28;20171;-83
2022/08/08 05:23:50;;;;;;;4.43;2.53;;;14.00;99.90;;;;;;5013207;28;20213;-82
2022/08/08 05:26:16;;;;;;;1.90;0.87;;;14.20;99.90;;;;;;5013549;28;20167;-82
2022/08/08 05:28:42;;;;;;;1.97;1.20;;;14.30;99.90;;;;;;5014617;28;20484;-83
2022/08/08 05:31:07;;;;;;;2.73;1.60;;;14.50;99.90;;;;;;5014257;28;20225;-82
2022/08/08 05:33:33;;;;;;;2.57;1.97;;;14.70;99.90;;;;;;5014557;28;20214;-83
2022/08/08 05:36:01;;;;;;;2.67;1.97;;;15.00;99.90;;;;;;5014461;28;20172;-83
2022/08/08 05:38:28;;;;;;;3.00;2.00;;;15.40;99.90;;;;;;5014472;28;20255;-84
2022/08/08 05:40:57;;;;;;;2.87;1.53;;;15.60;99.90;;;;;;5014358;28;20476;-84
2022/08/08 05:43:28;;;;;;;3.20;0.63;;;15.70;99.90;;;;;;5014398;28;20474;-85
2022/08/08 05:45:59;;;;;;;2.83;1.33;;;15.70;99.90;;;;;;5014135;28;20520;-84
2022/08/08 05:48:25;;;;;;;3.17;0.93;;;15.60;99.90;;;;;;4996694;28;20428;-85
2022/08/08 05:50:50;;;;;;;3.00;1.20;;;15.60;99.90;;;;;;5014214;28;20481;-85
2022/08/08 05:53:17;;;;;;;2.83;2.33;;;15.70;99.90;;;;;;4996735;28;20470;-84
2022/08/08 05:55:43;;;;;;;2.07;0.90;;;15.80;99.90;;;;;;4996488;28;20190;-85
2022/08/08 05:58:11;;;;;;;2.60;1.17;;;15.90;99.90;;;;;;4996470;28;20923;-85
2022/08/08 06:00:37;;;;;;;1.70;1.03;;;16.00;99.90;;;;;;5013482;28;20435;-85
2022/08/08 06:03:12;;;;;;;2.23;1.07;;;15.90;99.90;;;;;;4996371;28;20815;-84
2022/08/08 06:05:45;;;;;;;3.03;1.47;;;15.90;99.90;;;;;;5014054;28;20415;-84
2022/08/08 06:08:13;;;;;;;3.77;0.97;;;16.00;99.90;;;;;;5014095;28;20586;-86
2022/08/08 06:10:40;;;;;;;1.80;0.97;;;16.70;99.90;;;;;;4996610;28;20907;-86
2022/08/08 06:13:07;;;;;;;2.23;1.27;;;16.70;99.90;;;;;;5014198;28;20999;-84
2022/08/08 06:15:34;;;;;;;2.10;0.80;;;16.60;99.90;;;;;;5013682;28;20438;-87
2022/08/08 06:18:00;;;;;;;1.53;1.23;;;17.30;99.90;;;;;;5014049;28;20829;-86
2022/08/08 06:20:26;;;;;;;2.10;0.80;;;17.60;1.00;;;;;;5002723;28;20452;-89
2022/08/08 06:22:52;;;;;;;2.00;1.20;;;17.40;1.00;;;;;;4994665;28;20499;-88
2022/08/08 06:25:17;;;;;;;2.37;0.90;;;17.40;11.30;;;;;;4994631;28;20192;-84
2022/08/08 06:27:51;;;;;;;1.60;0.80;;;19.30;99.90;;;;;;4994170;28;20414;-87
2022/08/08 06:30:20;;;;;;;1.07;0.50;;;20.70;99.90;;;;;;4993714;28;20210;-86
2022/08/08 06:32:54;;;;;;;1.20;0.60;;;21.40;1.00;;;;;;5011430;28;20459;-87
2022/08/08 06:35:20;;;;;;;1.20;0.40;;;21.40;1.00;;;;;;5012444;28;20427;-86
2022/08/08 06:37:51;;;;;;;1.67;0.77;;;22.90;99.90;;;;;;5013465;28;20480;-85
2022/08/08 06:40:18;;;;;;;3.53;0.80;;;23.10;99.90;;;;;;5014537;28;20267;-87
2022/08/08 06:42:52;;;;;;;1.50;1.37;;;22.70;99.90;;;;;;5013384;28;20511;-85
2022/08/08 06:45:19;;;;;;;1.63;0.57;;;20.60;1.00;;;;;;5020590;28;20453;-87
2022/08/08 06:47:45;;;;;;;2.03;0.70;;;22.60;99.90;;;;;;5012251;28;20441;-88
2022/08/08 06:50:11;;;;;;;2.07;0.40;;;23.00;99.90;;;;;;5012984;28;20411;-90
2022/08/08 06:52:37;;;;;;;2.10;0.40;;;24.30;99.90;;;;;;5013272;28;20414;-86
2022/08/08 06:55:05;;;;;;;1.00;0.43;;;25.10;54.50;;;;;;5012984;28;20179;-88
2022/08/08 06:57:31;;;;;;;1.30;0.40;;;25.40;24.10;;;;;;5013141;28;20509;-84
2022/08/08 06:59:57;;;;;;;1.70;0.50;;;24.10;18.70;;;;;;4997689;28;20461;-83
2022/08/08 07:02:24;;;;;;;1.13;0.43;;;22.20;96.70;;;;;;5013095;28;20179;-86
2022/08/08 07:04:54;;;;;;;1.70;0.33;;;21.60;99.90;;;;;;5013004;28;20276;-84
2022/08/08 07:07:46;;;;;;;1.47;0.30;;;21.70;99.90;;;;;;5013070;28;20765;-89
2022/08/08 07:10:11;;;;;;;0.90;0.43;;;20.80;99.90;;;;;;4989888;28;20942;-84
2022/08/08 07:12:42;;;;;;;1.10;0.20;;;22.60;99.90;;;;;;5012861;28;20491;-83
2022/08/08 07:15:11;;;;;;;1.23;0.27;;;24.50;68.70;;;;;;5012451;28;20214;-89
2022/08/08 07:17:45;;;;;;;1.17;0.60;;;25.40;18.80;;;;;;4995451;28;20594;-84
2022/08/08 07:20:18;;;;;;;1.17;0.40;;;26.10;6.50;;;;;;5015032;28;20787;-83
2022/08/08 07:23:05;;;;;;;1.30;0.43;;;26.30;1.50;;;;;;5016681;28;20526;-85
2022/08/08 07:25:35;;;;;;;1.37;0.27;;;26.60;1.00;;;;;;5016521;28;20433;-83
2022/08/08 07:28:10;;;;;;;1.40;0.20;;;26.90;1.00;;;;;;5016757;28;20784;-83
2022/08/08 07:30:41;;;;;;;0.60;0.43;;;27.20;1.00;;;;;;5016234;28;20482;-84
2022/08/08 07:33:10;;;;;;;1.40;0.60;;;27.30;1.00;;;;;;5016518;28;20417;-84
2022/08/08 07:35:37;;;;;;;1.23;0.43;;;26.90;1.00;;;;;;5016462;28;20417;-86
2022/08/08 07:38:04;;;;;;;0.90;0.40;;;27.00;1.00;;;;;;5016607;28;20424;-84
2022/08/08 07:40:31;;;;;;;0.80;0.33;;;26.90;1.00;;;;;;5016656;28;20429;-84
2022/08/08 07:42:57;;;;;;;0.57;0.30;;;26.80;1.00;;;;;;5016641;28;20532;-87
2022/08/08 07:45:23;;;;;;;1.20;0.40;;;26.90;1.00;;;;;;5016030;28;21010;-85
2022/08/08 07:47:49;;;;;;;0.50;0.20;;;27.40;1.00;;;;;;5016315;28;20258;-86
2022/08/08 07:50:15;;;;;;;1.57;0.47;;;27.40;1.00;;;;;;5016067;28;20305;-83
2022/08/08 07:52:49;;;;;;;1.63;0.30;;;27.80;1.00;;;;;;5016278;28;20532;-84
2022/08/08 07:55:25;;;;;;;1.03;0.20;;;27.80;1.00;;;;;;5016059;28;20254;-85
2022/08/08 07:58:11;;;;;;;0.80;0.20;;;27.70;1.00;;;;;;5016118;28;20509;-86
2022/08/08 08:00:46;;;;;;;0.83;0.30;;;27.50;1.00;;;;;;4997941;28;20430;-90
2022/08/08 08:03:15;;;;;;;1.47;0.60;;;28.00;1.00;;;;;;5016036;28;20464;-87
2022/08/08 08:05:43;;;;;;;1.03;0.40;;;28.50;1.00;;;;;;5015959;28;20414;-89
2022/08/08 08:08:17;;;;;;;0.60;0.20;;;28.30;1.00;;;;;;5015897;28;20914;-89
2022/08/08 08:10:45;;;;;;;0.67;0.20;;;28.90;1.00;;;;;;5015924;28;20479;-86
2022/08/08 08:13:24;;;;;;;0.83;0.27;;;28.60;1.00;;;;;;5015718;28;20503;-88
2022/08/08 08:16:10;;;;;;;0.60;0.20;;;28.40;1.00;;;;;;5015070;28;20955;-85
2022/08/08 08:18:51;;;;;;;0.80;0.27;;;28.30;1.00;;;;;;5015675;28;20917;-84
2022/08/08 08:21:18;;;;;;;0.70;0.20;;;28.00;1.00;;;;;;4998157;28;20441;-90
2022/08/08 08:23:43;;;;;;;0.93;0.40;;;28.20;1.00;;;;;;5015644;28;20845;-89
2022/08/08 08:26:10;;;;;;;1.30;0.40;;;28.80;1.00;;;;;;5015629;28;20422;-89
2022/08/08 08:28:35;;;;;;;1.50;0.20;;;28.90;1.00;;;;;;5015200;28;20186;-85
2022/08/08 08:31:04;;;;;;;0.80;0.40;;;28.90;1.00;;;;;;5014235;28;20775;-84
2022/08/08 08:33:31;;;;;;;1.10;0.30;;;29.00;1.00;;;;;;5015467;28;20175;-83
2022/08/08 08:35:57;;;;;;;0.60;0.30;;;28.20;1.00;;;;;;4997639;28;20429;-89
2022/08/08 08:38:23;;;;;;;1.03;0.63;;;28.00;1.00;;;;;;4997813;28;20438;-91
2022/08/08 08:40:48;;;;;;;1.30;0.50;;;28.00;1.00;;;;;;5014523;28;20497;-89
2022/08/08 08:43:17;;;;;;;0.60;0.37;;;29.40;1.00;;;;;;5015927;28;20206;-92
2022/08/08 08:45:43;;;;;;;1.30;0.30;;;30.30;1.00;;;;;;5015692;28;20167;-89
2022/08/08 08:48:09;;;;;;;1.63;0.33;;;30.30;1.00;;;;;;5015599;28;20944;-90
2022/08/08 08:50:36;;;;;;;0.67;0.30;;;29.80;1.00;;;;;;4997857;28;20635;-87
2022/08/08 08:53:05;;;;;;;1.50;0.40;;;29.70;1.00;;;;;;5015355;28;20498;-88
2022/08/08 08:55:36;;;;;;;3.47;1.40;;;28.80;1.00;;;;;;5018514;28;20414;-89
2022/08/08 08:58:02;;;;;;;1.73;0.90;;;28.30;1.00;;;;;;5020463;28;20420;-88
2022/08/08 09:00:28;;;;;;;1.40;0.60;;;28.00;1.00;;;;;;5015376;28;20426;-84
2022/08/08 09:02:58;;;;;;;0.80;0.40;;;28.40;1.00;;;;;;5032174;28;20454;-85
2022/08/08 09:05:26;;;;;;;2.73;0.63;;;28.90;1.00;;;;;;5021152;28;20916;-89
2022/08/08 09:07:54;;;;;;;0.83;0.50;;;28.10;1.00;;;;;;5015580;28;20422;-90
2022/08/08 09:10:22;;;;;;;1.80;0.70;;;27.80;1.00;;;;;;4997670;28;20529;-89
2022/08/08 09:12:48;;;;;;;2.10;0.70;;;28.60;1.00;;;;;;5013322;28;20436;-84
2022/08/08 09:15:14;;;;;;;1.00;0.57;;;29.20;1.00;;;;;;5013816;28;20573;-85
2022/08/08 09:17:43;;;;;;;0.90;0.40;;;29.90;1.00;;;;;;5014546;28;20505;-89
2022/08/08 09:20:10;;;;;;;0.80;0.40;;;30.00;1.00;;;;;;5014595;28;20178;-85
2022/08/08 09:22:36;;;;;;;1.50;0.70;;;29.70;1.00;;;;;;5014459;28;20421;-88
2022/08/08 09:25:02;;;;;;;1.13;0.67;;;27.80;1.00;;;;;;5014523;28;20773;-86
2022/08/08 09:27:29;;;;;;;1.30;0.60;;;26.90;1.00;;;;;;4996727;28;20181;-84
2022/08/08 09:30:09;;;;;;;2.30;0.63;;;26.90;1.00;;;;;;5014000;28;20996;-87
2022/08/08 09:32:55;;;;;;;1.37;0.70;;;27.20;1.00;;;;;;5014509;28;20413;-90
2022/08/08 09:35:27;;;;;;;1.33;0.67;;;26.80;1.00;;;;;;5014449;28;20785;-84
2022/08/08 09:37:55;;;;;;;1.33;0.70;;;25.90;1.00;;;;;;5014401;28;20406;-85
2022/08/08 09:40:23;;;;;;;2.03;0.30;;;26.70;1.00;;;;;;5014308;28;20446;-85
2022/08/08 09:42:53;;;;;;;1.33;0.50;;;26.30;1.00;;;;;;5013716;28;20458;-88
2022/08/08 09:45:31;;;;;;;0.90;0.50;;;25.40;1.00;;;;;;4996181;28;20426;-89
2022/08/08 09:48:02;;;;;;;1.90;0.83;;;24.70;1.00;;;;;;5013907;28;20414;-89
2022/08/08 09:50:29;;;;;;;2.03;0.70;;;25.10;1.00;;;;;;5013356;28;20560;-89
2022/08/08 09:52:56;;;;;;;1.77;0.53;;;26.30;1.00;;;;;;5013924;28;20429;-83
2022/08/08 09:55:22;;;;;;;1.87;0.30;;;27.20;1.00;;;;;;5014139;28;20468;-88
2022/08/08 09:57:50;;;;;;;2.23;0.40;;;27.20;1.00;;;;;;5014489;28;20824;-88
2022/08/08 10:00:18;;;;;;;0.90;0.33;;;27.80;1.00;;;;;;5013862;28;20410;-91
2022/08/08 10:02:50;;;;;;;1.40;0.50;;;28.20;1.00;;;;;;5014159;28;20410;-87
2022/08/08 10:05:17;;;;;;;0.77;0.37;;;27.10;1.00;;;;;;5014355;28;20418;-91
2022/08/08 10:07:57;;;;;;;1.43;0.47;;;26.50;1.00;;;;;;5014233;28;20747;-90
2022/08/08 10:10:37;;;;;;;0.90;0.60;;;26.80;1.00;;;;;;5014171;28;20476;-91
2022/08/08 10:13:20;;;;;;;2.20;0.50;;;26.60;1.00;;;;;;5013777;28;20905;-87
2022/08/08 10:15:47;;;;;;;1.57;0.70;;;26.50;1.00;;;;;;5014119;28;20929;-88
2022/08/08 10:18:40;;;;;;;0.87;0.50;;;26.60;1.00;;;;;;5014219;28;20402;-87
2022/08/08 10:21:09;;;;;;;1.60;0.50;;;26.90;1.00;;;;;;5014029;28;20414;-89
2022/08/08 10:23:37;;;;;;;1.97;0.50;;;27.00;1.00;;;;;;5013812;28;20888;-91
2022/08/08 10:26:03;;;;;;;1.90;0.53;;;26.70;1.00;;;;;;5013841;28;20423;-91
2022/08/08 10:28:32;;;;;;;1.03;0.63;;;26.80;1.00;;;;;;5013585;28;20433;-87
2022/08/08 10:32:30;;;;;;;1.20;0.60;;;26.90;1.00;;;;;;5013815;28;20203;-88
2022/08/08 10:33:48;;;;;;;2.10;0.97;;;27.30;1.00;;;;;;5013846;28;20471;-91
2022/08/08 10:36:15;;;;;;;2.90;0.50;;;27.60;1.00;;;;;;4996227;28;20418;-84
2022/08/08 10:38:41;;;;;;;0.90;0.40;;;27.30;1.00;;;;;;5013495;28;20424;-87
2022/08/08 10:41:15;;;;;;;1.60;0.97;;;27.30;1.00;;;;;;5013496;28;20411;-88
2022/08/08 10:43:42;;;;;;;1.50;0.50;;;27.40;1.00;;;;;;5013156;28;20209;-86
2022/08/08 10:46:24;;;;;;;1.53;0.40;;;27.40;1.00;;;;;;5013440;28;20751;-85
2022/08/08 10:48:52;;;;;;;0.90;0.40;;;27.90;1.00;;;;;;5013423;28;20515;-87
2022/08/08 10:51:17;;;;;;;1.17;0.43;;;27.40;1.00;;;;;;5013175;28;20462;-84
2022/08/08 10:53:48;;;;;;;1.30;0.77;;;27.10;1.00;;;;;;4995324;28;20509;-88
2022/08/08 10:56:14;;;;;;;0.77;0.20;;;26.70;1.00;;;;;;5007396;28;20274;-85
2022/08/08 10:58:39;;;;;;;1.13;0.43;;;26.20;1.00;;;;;;5019991;28;20512;-84
2022/08/08 11:01:11;;;;;;;1.27;0.30;;;25.80;1.00;;;;;;5012834;28;20179;-84
2022/08/08 11:03:44;;;;;;;1.40;0.47;;;25.40;1.00;;;;;;5012887;28;20288;-85
2022/08/08 11:06:11;;;;;;;1.10;0.60;;;25.10;1.00;;;;;;5012899;28;20418;-86
2022/08/08 11:08:38;;;;;;;1.27;0.50;;;24.90;1.00;;;;;;5012710;28;20410;-87
2022/08/08 11:11:07;;;;;;;1.10;0.20;;;24.80;1.00;;;;;;5012831;28;20836;-84
2022/08/08 11:13:43;;;;;;;2.10;0.70;;;24.60;1.00;;;;;;4994960;28;20907;-86
2022/08/08 11:16:22;;;;;;;1.10;0.80;;;24.50;1.00;;;;;;4995063;28;20841;-84
2022/08/08 11:18:59;;;;;;;1.13;0.33;;;24.40;8.70;;;;;;5012773;28;20984;-84
2022/08/08 11:21:25;;;;;;;1.20;0.40;;;24.40;65.10;;;;;;5012783;28;20465;-83
2022/08/08 11:23:53;;;;;;;2.57;0.50;;;24.30;40.40;;;;;;4995195;28;20481;-87
2022/08/08 11:26:19;;;;;;;1.87;0.50;;;24.20;24.80;;;;;;4995171;28;20179;-84
2022/08/08 11:28:45;;;;;;;1.83;0.63;;;24.00;20.90;;;;;;5012397;28;20834;-85
2022/08/08 11:31:15;;;;;;;1.13;0.40;;;23.90;13.10;;;;;;5012777;28;20562;-83
2022/08/08 11:33:51;;;;;;;1.10;0.70;;;23.70;25.50;;;;;;5012711;28;20422;-87
2022/08/08 11:36:17;;;;;;;1.57;0.73;;;23.70;93.30;;;;;;5012784;28;20421;-84
2022/08/08 11:38:45;;;;;;;1.17;0.40;;;23.60;99.90;;;;;;5012449;28;20434;-87
2022/08/08 11:41:11;;;;;;;1.20;0.63;;;23.70;99.90;;;;;;5012715;28;20413;-85
2022/08/08 11:43:38;;;;;;;1.80;0.30;;;23.70;62.50;;;;;;5012149;28;20529;-85
2022/08/08 11:46:04;;;;;;;0.90;0.40;;;23.80;59.20;;;;;;5012501;28;20187;-88
2022/08/08 11:48:31;;;;;;;1.13;0.40;;;24.00;58.20;;;;;;5012727;28;20964;-86
2022/08/08 11:50:57;;;;;;;4.23;0.70;;;24.00;17.50;;;;;;4994760;28;20234;-83
2022/08/08 11:53:23;;;;;;;0.90;0.40;;;24.10;90.90;;;;;;5012503;28;20421;-83
2022/08/08 11:55:50;;;;;;;2.13;0.40;;;24.10;18.80;;;;;;5012542;28;20774;-87
2022/08/08 11:58:17;;;;;;;0.73;0.30;;;24.10;19.50;;;;;;5012003;28;20570;-87
2022/08/08 12:00:47;;;;;;;1.07;0.30;;;24.00;27.90;;;;;;5012415;28;20422;-83
2022/08/08 12:03:19;;;;;;;1.00;0.53;;;24.00;37.80;;;;;;5012299;28;20548;-83
2022/08/08 12:05:45;;;;;;;1.30;0.93;;;24.20;58.00;;;;;;4996017;28;21025;-87
2022/08/08 12:08:12;;;;;;;1.90;0.57;;;24.10;37.60;;;;;;5015870;28;20771;-84
2022/08/08 12:10:51;;;;;;;1.27;0.30;;;24.00;38.20;;;;;;5015716;28;20409;-83
2022/08/08 12:13:22;;;;;;;2.20;0.63;;;24.00;28.00;;;;;;5015454;28;20489;-86
2022/08/08 12:15:48;;;;;;;1.10;0.67;;;24.00;14.30;;;;;;5015791;28;20410;-84
2022/08/08 12:18:26;;;;;;;2.27;0.93;;;24.20;23.70;;;;;;5015642;28;20922;-87
2022/08/08 12:20:54;;;;;;;1.30;0.47;;;24.40;89.20;;;;;;5015313;28;20428;-87
2022/08/08 12:23:37;;;;;;;1.73;0.40;;;24.40;20.60;;;;;;5015419;28;20820;-85
2022/08/08 12:26:10;;;;;;;0.90;0.40;;;24.70;70.50;;;;;;5015636;28;20444;-83
2022/08/08 12:28:36;;;;;;;1.87;0.63;;;24.80;28.20;;;;;;4997591;28;20437;-86
2022/08/08 12:31:06;;;;;;;1.20;0.40;;;24.70;28.20;;;;;;5015439;28;20406;-87
2022/08/08 12:33:32;;;;;;;0.90;0.20;;;24.50;1.00;;;;;;5015296;28;20679;-85
2022/08/08 12:35:57;;;;;;;1.13;0.20;;;24.30;1.00;;;;;;5015442;28;20421;-84
2022/08/08 12:38:23;;;;;;;1.13;0.20;;;24.50;2.00;;;;;;5015446;28;20184;-88
2022/08/08 12:40:54;;;;;;;1.23;1.13;;;24.70;67.90;;;;;;4997757;28;20261;-87
2022/08/08 12:43:31;;;;;;;1.30;0.40;;;24.80;1.00;;;;;;5014771;28;20210;-83
2022/08/08 12:45:59;;;;;;;2.40;0.40;;;26.30;1.00;;;;;;5015267;28;20428;-83
2022/08/08 12:48:25;;;;;;;1.10;0.30;;;26.50;1.00;;;;;;5015093;28;20410;-87
2022/08/08 12:50:53;;;;;;;0.87;0.30;;;25.70;1.00;;;;;;5014590;28;20985;-87
2022/08/08 12:53:28;;;;;;;4.10;0.50;;;25.10;1.00;;;;;;5015062;28;20181;-87
2022/08/08 12:56:00;;;;;;;2.30;0.70;;;24.90;14.30;;;;;;5014145;28;20425;-84
2022/08/08 12:58:28;;;;;;;1.10;0.63;;;24.70;1.00;;;;;;5014557;28;20418;-85
2022/08/08 13:00:53;;;;;;;0.70;0.50;;;24.70;1.00;;;;;;5014827;28;20488;-86
2022/08/08 13:03:32;;;;;;;1.47;0.20;;;24.80;1.00;;;;;;5014819;28;20942;-83
2022/08/08 13:06:22;;;;;;;1.90;0.20;;;24.90;1.00;;;;;;4995567;28;20669;-85
2022/08/08 13:08:52;;;;;;;0.63;0.20;;;25.00;1.00;;;;;;5021021;28;20437;-85
2022/08/08 13:11:31;;;;;;;0.67;0.30;;;25.90;1.00;;;;;;5014776;28;20425;-84
2022/08/08 13:13:56;;;;;;;1.10;0.40;;;25.90;1.00;;;;;;5014431;28;20417;-86
2022/08/08 13:16:23;;;;;;;1.50;0.30;;;25.60;1.00;;;;;;5014707;28;20484;-84
2022/08/08 13:18:49;;;;;;;0.80;0.30;;;25.40;1.00;;;;;;5013864;28;20206;-87
2022/08/08 13:21:15;;;;;;;0.90;0.20;;;25.60;1.00;;;;;;5014510;28;20942;-89
2022/08/08 13:23:41;;;;;;;1.83;0.20;;;26.10;1.00;;;;;;5014319;28;20219;-87
2022/08/08 13:26:08;;;;;;;0.90;0.20;;;27.10;1.00;;;;;;5014350;28;20895;-87